Terminal Aerodrome Forecast
Issued by NWS Buffalo, NY

Home | Current Version | Previous Version | Text Only | Print | Product List | Glossary On
Versions: 1 2 3 4 5 6 7 8 9 10 11 12 13 14 15 16 17 18 19 20 21 22 23 24 25
730
FTUS41 KBUF 191120
TAFART
TAF
KART 191120Z 1912/2012 24008KT P6SM SCT200
     FM191600 26008KT P6SM BKN040
     FM191800 28008KT P6SM BKN015
     FM200300 32006KT P6SM SCT015=

USA.gov is the U.S. government's official web portal to all federal, state and local government web resources and services.